Time;durP1;ratioP1;P1;durP2;ratioP2;P2;SDS_P1;SDS_P2;PMS_P1;PMS_P2;Temp;Humidity;BMP_temperature;BMP_pressure;BME280_temperature;BME280_humidity;BME280_pressure;Samples;Min_cycle;Max_cycle;Signal;HPM_P1;HPM_P2
2023/07/06 00:01:48;;;;;;;19.42;10.10;;;;;;;29.11;42.25;99676.91;5006453;28;20453;-69
2023/07/06 00:04:15;;;;;;;15.90;10.43;;;;;;;29.06;42.20;99671.44;5058270;28;20047;-70
2023/07/06 00:06:42;;;;;;;16.17;9.98;;;;;;;29.15;42.54;99677.19;5041407;28;20345;-69
2023/07/06 00:09:11;;;;;;;13.13;9.85;;;;;;;29.05;42.46;99671.69;5002211;28;20044;-69
2023/07/06 00:11:39;;;;;;;19.92;10.38;;;;;;;29.22;42.62;99684.00;5018143;28;20059;-70
2023/07/06 00:14:07;;;;;;;17.98;10.35;;;;;;;29.15;42.48;99688.13;5035170;28;20045;-69
2023/07/06 00:16:35;;;;;;;13.05;9.60;;;;;;;29.08;42.87;99684.84;4995562;28;20484;-69
2023/07/06 00:19:03;;;;;;;13.07;9.77;;;;;;;29.16;42.42;99678.81;4962727;28;20077;-69
2023/07/06 00:21:32;;;;;;;15.32;9.43;;;;;;;28.96;42.78;99687.84;4995304;28;20065;-69
2023/07/06 00:23:58;;;;;;;19.65;9.52;;;;;;;28.95;42.61;99688.97;4962509;28;20093;-69
2023/07/06 00:26:24;;;;;;;17.05;9.45;;;;;;;28.94;42.77;99684.56;4978573;28;20494;-69
2023/07/06 00:28:55;;;;;;;14.55;9.20;;;;;;;28.86;43.11;99685.13;4975796;28;20050;-69
2023/07/06 00:31:32;;;;;;;14.82;9.80;;;;;;;29.08;42.54;99688.41;4976140;28;20630;-69
2023/07/06 00:34:04;;;;;;;14.60;9.93;;;;;;;29.04;43.12;99687.28;4944829;28;20080;-69
2023/07/06 00:36:31;;;;;;;18.92;10.65;;;;;;;29.08;42.96;99693.88;4959387;28;20544;-69
2023/07/06 00:39:01;;;;;;;14.60;10.23;;;;;;;28.82;43.36;99692.25;4959600;28;20042;-69
2023/07/06 00:41:31;;;;;;;14.75;9.57;;;;;;;29.01;43.37;99687.84;4959089;28;20078;-69
2023/07/06 00:43:57;;;;;;;18.40;10.85;;;;;;;28.97;43.08;99686.75;4975446;28;20120;-70
2023/07/06 00:46:29;;;;;;;16.45;10.55;;;;;;;29.21;42.92;99692.47;4994901;28;20127;-70
2023/07/06 00:48:57;;;;;;;16.25;10.05;;;;;;;28.99;43.15;99700.97;5002038;28;20036;-70
2023/07/06 00:51:27;;;;;;;14.80;9.95;;;;;;;28.90;43.85;99696.34;5034212;28;20059;-69
2023/07/06 00:53:57;;;;;;;21.13;11.48;;;;;;;28.91;44.18;99695.22;5001969;28;20051;-70
2023/07/06 00:56:25;;;;;;;16.77;10.70;;;;;;;29.00;43.77;99697.13;5017365;28;20032;-69
2023/07/06 00:58:55;;;;;;;16.38;11.30;;;;;;;28.80;44.30;99691.69;5017151;28;20045;-70
2023/07/06 01:01:24;;;;;;;16.58;10.43;;;;;;;28.78;44.19;99698.53;5017351;28;20145;-69
2023/07/06 01:03:55;;;;;;;15.57;10.30;;;;;;;28.85;44.22;99694.44;4999971;28;20095;-69
2023/07/06 01:06:37;;;;;;;17.07;10.80;;;;;;;28.92;44.19;99696.88;5030946;28;20055;-69
2023/07/06 01:09:04;;;;;;;15.57;10.40;;;;;;;28.45;44.69;99694.41;5041208;28;20032;-69
2023/07/06 01:11:32;;;;;;;17.33;11.25;;;;;;;28.63;44.84;99693.88;5057924;28;20028;-70
2023/07/06 01:13:58;;;;;;;19.10;10.90;;;;;;;28.34;44.87;99692.75;5058225;28;20043;-69
2023/07/06 01:16:36;;;;;;;18.38;11.23;;;;;;;28.64;45.19;99686.50;5076760;28;20134;-69
2023/07/06 01:19:25;;;;;;;15.43;11.40;;;;;;;28.69;45.05;99689.25;5076979;28;20028;-69
2023/07/06 01:22:12;;;;;;;22.05;11.35;;;;;;;28.83;44.49;99693.06;5037126;28;20044;-70
2023/07/06 01:25:14;;;;;;;18.92;11.60;;;;;;;28.77;44.70;99691.44;5038090;28;20049;-69
2023/07/06 01:28:18;;;;;;;14.02;10.25;;;;;;;28.82;44.73;99692.25;5050469;28;20136;-70
2023/07/06 01:31:11;;;;;;;15.50;10.43;;;;;;;28.75;44.73;99672.56;5020412;28;20067;-69
2023/07/06 01:34:10;;;;;;;20.23;10.98;;;;;;;28.82;44.44;99678.56;5020618;28;20078;-69
2023/07/06 01:36:56;;;;;;;14.55;10.23;;;;;;;28.46;44.62;99687.03;5037046;28;20044;-69
2023/07/06 01:39:30;;;;;;;17.85;10.50;;;;;;;28.70;44.78;99699.09;5020390;28;20041;-69
2023/07/06 01:42:25;;;;;;;14.93;10.45;;;;;;;28.85;44.96;99699.91;5000537;28;20045;-69
2023/07/06 01:44:53;;;;;;;14.50;10.10;;;;;;;28.47;45.88;99696.91;5035001;28;20044;-69
2023/07/06 01:47:19;;;;;;;16.98;10.30;;;;;;;28.35;45.94;99686.22;5018093;28;20069;-69
2023/07/06 01:49:48;;;;;;;19.35;10.60;;;;;;;28.52;45.47;99685.97;5017457;28;20554;-69
2023/07/06 01:52:43;;;;;;;13.85;9.40;;;;;;;28.93;44.39;99693.03;5000851;28;20110;-69
2023/07/06 01:55:32;;;;;;;13.63;9.50;;;;;;;29.08;43.67;99706.72;5017120;28;20106;-69
2023/07/06 01:58:23;;;;;;;15.80;9.82;;;;;;;29.07;43.63;99705.91;4998940;28;20040;-69
2023/07/06 02:00:56;;;;;;;17.83;10.80;;;;;;;29.00;44.09;99716.28;5015927;28;20036;-70
2023/07/06 02:03:26;;;;;;;16.30;10.43;;;;;;;28.85;44.25;99712.72;4999715;28;20049;-70
2023/07/06 02:05:53;;;;;;;17.52;11.27;;;;;;;28.96;44.14;99704.25;5016472;28;20045;-70
2023/07/06 02:08:20;;;;;;;15.65;10.13;;;;;;;28.95;43.34;99705.38;4957853;28;20042;-70
2023/07/06 02:10:50;;;;;;;17.42;11.32;;;;;;;28.89;43.52;99711.91;4958097;28;20148;-70
2023/07/06 02:13:17;;;;;;;18.75;10.40;;;;;;;29.01;43.61;99714.38;4952308;28;20144;-70
2023/07/06 02:15:44;;;;;;;18.83;10.57;;;;;;;29.15;43.02;99716.28;5009301;28;20046;-70
2023/07/06 02:18:12;;;;;;;14.98;10.63;;;;;;;29.20;42.68;99708.06;4994071;28;20042;-69
2023/07/06 02:20:38;;;;;;;17.00;11.20;;;;;;;29.17;42.57;99700.41;4994141;28;20050;-68
2023/07/06 02:23:11;;;;;;;15.57;10.75;;;;;;;29.33;42.40;99714.88;4977749;28;20133;-69
2023/07/06 02:25:39;;;;;;;16.05;11.32;;;;;;;29.28;42.18;99717.63;4961493;28;20090;-69
2023/07/06 02:28:10;;;;;;;16.83;10.77;;;;;;;29.64;42.33;99723.84;4961212;28;20374;-69
2023/07/06 02:30:37;;;;;;;16.10;10.50;;;;;;;29.54;42.16;99717.25;4977376;28;20601;-70
2023/07/06 02:33:04;;;;;;;17.35;10.93;;;;;;;29.56;42.12;99717.81;4977205;28;20050;-69
2023/07/06 02:35:32;;;;;;;15.25;11.05;;;;;;;29.37;42.24;99716.78;4980904;28;20038;-69
2023/07/06 02:37:59;;;;;;;16.80;10.85;;;;;;;29.54;42.08;99714.53;4958178;28;20129;-69
2023/07/06 02:40:26;;;;;;;17.95;11.15;;;;;;;29.52;42.13;99715.91;4938339;29;20051;-69
2023/07/06 02:42:56;;;;;;;20.15;11.18;;;;;;;29.50;42.15;99710.72;4939325;29;20122;-69
2023/07/06 02:45:23;;;;;;;16.75;10.90;;;;;;;29.76;42.23;99722.41;4939148;29;20058;-69
2023/07/06 02:47:51;;;;;;;13.73;10.65;;;;;;;29.70;41.71;99722.72;4917408;29;20140;-69
2023/07/06 02:50:19;;;;;;;14.52;10.85;;;;;;;29.76;41.44;99721.59;4942232;29;20066;-69
2023/07/06 02:52:47;;;;;;;19.02;10.93;;;;;;;29.85;41.13;99734.41;4958719;28;20109;-69
2023/07/06 02:55:14;;;;;;;18.40;11.10;;;;;;;29.87;41.27;99721.28;4961191;28;20045;-69
2023/07/06 02:57:40;;;;;;;20.50;11.82;;;;;;;29.85;41.27;99728.09;4903415;29;20044;-69
2023/07/06 03:00:12;;;;;;;40.63;12.32;;;;;;;30.10;41.14;99727.97;4903577;29;20158;-69
2023/07/06 03:02:40;;;;;;;39.35;11.88;;;;;;;29.95;41.19;99731.66;4934969;29;20047;-69
2023/07/06 03:05:08;;;;;;;23.35;10.93;;;;;;;29.82;41.60;99728.66;4903911;29;20043;-69
2023/07/06 03:07:34;;;;;;;18.45;10.50;;;;;;;29.91;41.24;99730.56;4919323;29;20534;-69
2023/07/06 03:10:02;;;;;;;19.92;11.35;;;;;;;30.03;40.82;99733.78;4921578;29;20086;-69
2023/07/06 03:12:33;;;;;;;16.58;11.32;;;;;;;30.16;40.76;99729.59;4942040;28;20253;-69
2023/07/06 03:15:17;;;;;;;32.70;13.13;;;;;;;30.25;40.68;99741.63;4957538;28;20447;-69
2023/07/06 03:17:53;;;;;;;22.27;11.57;;;;;;;30.00;41.09;99731.59;4959359;28;20050;-69
2023/07/06 03:20:20;;;;;;;21.75;12.88;;;;;;;29.88;41.22;99744.81;4964850;28;20495;-69
2023/07/06 03:22:51;;;;;;;21.58;12.95;;;;;;;29.92;41.79;99740.44;4965190;28;20167;-69
2023/07/06 03:25:20;;;;;;;26.08;12.80;;;;;;;29.82;41.69;99745.94;4949318;28;20085;-70
2023/07/06 03:27:48;;;;;;;24.42;13.13;;;;;;;29.86;41.72;99737.97;4969707;28;20070;-69
2023/07/06 03:30:32;;;;;;;19.55;13.18;;;;;;;29.76;41.72;99744.31;5006686;28;20183;-70
2023/07/06 03:33:00;;;;;;;23.05;14.63;;;;;;;29.55;41.69;99745.47;4986758;28;20041;-69
2023/07/06 03:35:29;;;;;;;28.38;14.35;;;;;;;29.42;42.22;99746.88;5040437;28;20036;-70
2023/07/06 03:37:58;;;;;;;21.83;14.57;;;;;;;29.38;42.28;99740.28;5059615;28;20032;-69
2023/07/06 03:40:29;;;;;;;23.58;14.35;;;;;;;29.51;42.55;99737.00;5042951;28;20032;-69
2023/07/06 03:42:56;;;;;;;32.03;14.13;;;;;;;29.36;42.98;99745.25;5076820;28;20070;-69
2023/07/06 03:45:24;;;;;;;28.88;14.38;;;;;;;29.49;43.13;99738.38;5043106;28;20067;-69
2023/07/06 03:47:51;;;;;;;26.42;14.90;;;;;;;29.46;42.74;99744.41;5059997;28;20040;-69
2023/07/06 03:50:20;;;;;;;26.27;14.30;;;;;;;29.57;43.06;99741.34;5043066;28;20055;-69
2023/07/06 03:52:47;;;;;;;26.80;14.60;;;;;;;29.49;42.94;99741.91;5043376;28;20446;-69
2023/07/06 03:55:33;;;;;;;28.45;13.10;;;;;;;29.81;42.69;99738.00;5043036;28;20712;-69
2023/07/06 03:58:00;;;;;;;21.02;14.02;;;;;;;29.61;42.73;99731.47;4998581;28;20474;-69
2023/07/06 04:00:28;;;;;;;23.00;13.95;;;;;;;29.64;42.66;99727.41;5032199;28;20045;-70
2023/07/06 04:02:57;;;;;;;19.70;13.65;;;;;;;29.88;42.47;99735.75;5021299;28;20118;-69
2023/07/06 04:05:37;;;;;;;26.90;14.63;;;;;;;30.03;42.28;99717.34;5021854;28;20117;-69
2023/07/06 04:08:09;;;;;;;25.35;12.75;;;;;;;30.16;42.07;99719.47;5038211;28;20102;-69
2023/07/06 04:10:37;;;;;;;23.60;12.77;;;;;;;30.35;41.45;99725.97;5021935;28;20059;-69
2023/07/06 04:13:06;;;;;;;27.40;13.10;;;;;;;30.29;41.07;99727.06;5001709;28;20070;-69
2023/07/06 04:15:34;;;;;;;27.20;11.80;;;;;;;30.51;40.84;99730.19;5001526;28;20049;-69
2023/07/06 04:18:03;;;;;;;27.73;12.18;;;;;;;30.66;40.57;99719.09;4969385;28;20128;-69
2023/07/06 04:20:31;;;;;;;19.98;11.60;;;;;;;30.83;40.03;99726.97;5001782;28;20465;-70
2023/07/06 04:22:58;;;;;;;21.63;11.63;;;;;;;30.79;40.13;99726.72;4985317;28;20041;-69
2023/07/06 04:25:29;;;;;;;27.52;12.10;;;;;;;30.80;40.07;99722.03;5001477;28;20047;-69
2023/07/06 04:27:56;;;;;;;27.08;12.18;;;;;;;30.88;40.09;99743.38;5005872;28;20246;-70
2023/07/06 04:30:24;;;;;;;27.63;11.70;;;;;;;30.68;40.35;99738.03;5041545;28;20451;-70
2023/07/06 04:32:50;;;;;;;22.55;12.60;;;;;;;30.91;40.19;99737.31;5041161;28;20164;-70
2023/07/06 04:35:22;;;;;;;25.55;12.38;;;;;;;31.09;39.96;99739.34;5041425;28;20036;-69
2023/07/06 04:37:49;;;;;;;25.17;12.45;;;;;;;31.14;39.66;99742.03;5041342;28;20052;-69
2023/07/06 04:40:20;;;;;;;28.77;12.50;;;;;;;31.25;39.62;99746.31;5040811;28;20063;-70
2023/07/06 04:42:53;;;;;;;30.63;12.60;;;;;;;31.46;39.44;99747.75;5057518;28;20047;-71
2023/07/06 04:45:21;;;;;;;27.77;11.77;;;;;;;31.45;39.17;99745.28;5057755;28;20054;-69
2023/07/06 04:47:49;;;;;;;19.50;12.10;;;;;;;31.42;38.86;99745.88;5040959;28;20032;-69
2023/07/06 04:50:22;;;;;;;18.83;11.23;;;;;;;31.68;38.73;99748.03;5029812;28;20379;-69
2023/07/06 04:52:55;;;;;;;23.83;11.30;;;;;;;31.94;38.68;99749.41;5058897;28;20079;-69
2023/07/06 04:55:23;;;;;;;25.95;11.05;;;;;;;31.88;38.95;99750.56;5057971;28;20085;-70
2023/07/06 04:57:52;;;;;;;20.92;11.77;;;;;;;32.08;38.49;99754.97;5042050;28;20028;-69
2023/07/06 05:00:24;;;;;;;22.05;11.02;;;;;;;32.08;38.35;99752.22;5094424;28;20046;-69
2023/07/06 05:02:55;;;;;;;21.70;11.95;;;;;;;32.33;38.51;99755.47;5078123;28;20055;-69
2023/07/06 05:05:22;;;;;;;21.92;11.48;;;;;;;32.12;38.34;99751.34;5077151;28;20044;-70
2023/07/06 05:07:51;;;;;;;24.17;11.75;;;;;;;32.23;38.53;99749.28;5027763;28;20134;-70
2023/07/06 05:10:17;;;;;;;23.40;11.00;;;;;;;32.35;38.32;99744.16;5060875;28;20051;-69
2023/07/06 05:12:44;;;;;;;19.55;11.02;;;;;;;32.10;38.04;99748.09;5044086;28;20039;-70
2023/07/06 05:15:10;;;;;;;21.63;10.60;;;;;;;32.42;38.23;99752.88;5060300;28;20095;-69
2023/07/06 05:17:39;;;;;;;20.52;11.05;;;;;;;32.53;37.52;99741.44;5060592;28;20036;-69
2023/07/06 05:20:11;;;;;;;25.30;10.80;;;;;;;32.91;37.37;99760.63;5060177;28;20124;-69
2023/07/06 05:22:39;;;;;;;18.98;11.05;;;;;;;32.93;36.78;99762.00;5037197;28;20132;-69
2023/07/06 05:25:12;;;;;;;17.63;10.27;;;;;;;33.37;36.56;99764.22;5066204;28;20040;-69
2023/07/06 05:27:38;;;;;;;17.77;10.82;;;;;;;33.23;36.45;99755.94;5049758;28;20044;-70
2023/07/06 05:30:07;;;;;;;20.00;11.27;;;;;;;33.42;36.00;99758.63;5033149;28;20052;-69
2023/07/06 05:32:35;;;;;;;25.92;10.85;;;;;;;33.47;35.92;99751.13;5017070;28;20067;-69
2023/07/06 05:35:04;;;;;;;22.35;11.10;;;;;;;33.66;35.86;99738.03;5016750;28;20049;-69
2023/07/06 05:37:34;;;;;;;26.85;11.30;;;;;;;33.75;35.51;99744.47;5033119;28;20048;-69
2023/07/06 05:40:03;;;;;;;21.58;11.02;;;;;;;33.96;35.51;99747.66;5032984;28;20048;-69
2023/07/06 05:42:31;;;;;;;18.65;11.07;;;;;;;33.81;35.01;99742.44;5000742;28;20434;-69
2023/07/06 05:45:00;;;;;;;26.35;10.52;;;;;;;34.05;34.76;99743.03;5049059;28;20045;-69
2023/07/06 05:47:27;;;;;;;27.80;11.48;;;;;;;34.18;34.80;99751.28;5016724;28;20033;-69
2023/07/06 05:49:57;;;;;;;28.92;10.55;;;;;;;34.18;34.51;99740.25;5035466;28;20151;-70
2023/07/06 05:52:24;;;;;;;18.88;10.05;;;;;;;34.55;34.34;99739.16;5020866;28;20525;-69
2023/07/06 05:54:51;;;;;;;27.77;11.02;;;;;;;34.40;34.27;99736.75;4989290;28;20074;-69
2023/07/06 05:57:19;;;;;;;26.67;10.90;;;;;;;34.59;33.95;99733.81;5078265;28;20460;-69
2023/07/06 05:59:46;;;;;;;26.50;9.55;;;;;;;34.71;33.62;99729.38;5029315;28;20386;-69
2023/07/06 06:02:16;;;;;;;27.02;10.57;;;;;;;35.04;33.76;99716.97;5045253;28;20070;-70
2023/07/06 06:04:43;;;;;;;23.75;9.43;;;;;;;35.04;33.06;99730.75;5061062;28;20097;-69
2023/07/06 06:07:09;;;;;;;24.17;8.90;;;;;;;35.15;32.88;99726.56;5027079;28;20155;-69
2023/07/06 06:09:39;;;;;;;27.60;9.35;;;;;;;35.38;32.87;99736.47;5027905;28;20044;-70
2023/07/06 06:12:05;;;;;;;21.55;8.85;;;;;;;35.66;32.17;99735.13;5043845;28;20032;-69
2023/07/06 06:14:34;;;;;;;17.60;9.38;;;;;;;35.84;32.16;99736.03;5060125;28;20093;-69
2023/07/06 06:17:03;;;;;;;20.88;8.45;;;;;;;36.06;31.40;99740.63;5044308;28;20130;-69
2023/07/06 06:19:38;;;;;;;27.85;9.70;;;;;;;36.29;30.83;99739.34;5028089;28;20052;-70
2023/07/06 06:22:09;;;;;;;22.42;8.10;;;;;;;36.40;30.64;99744.25;5044255;28;20082;-69
2023/07/06 06:24:38;;;;;;;20.02;6.15;;;;;;;36.27;28.95;99727.78;5027767;28;20345;-70
2023/07/06 06:27:06;;;;;;;16.30;7.00;;;;;;;36.63;29.21;99744.91;5060070;28;20387;-69
2023/07/06 06:29:33;;;;;;;16.70;6.90;;;;;;;36.60;29.53;99734.47;5056619;28;20140;-69
2023/07/06 06:32:03;;;;;;;11.35;6.47;;;;;;;36.85;29.15;99736.44;5040040;28;20044;-71
2023/07/06 06:34:31;;;;;;;9.88;6.78;;;;;;;36.71;27.94;99730.25;5024544;28;20044;-69
2023/07/06 06:36:59;;;;;;;12.57;6.00;;;;;;;36.88;27.77;99733.84;5039925;28;20338;-70
2023/07/06 06:39:26;;;;;;;12.07;5.65;;;;;;;36.93;26.80;99738.38;5036290;28;20075;-69
2023/07/06 06:41:54;;;;;;;18.70;6.53;;;;;;;36.99;26.57;99737.06;5019518;28;20052;-69
2023/07/06 06:44:24;;;;;;;8.98;5.75;;;;;;;36.79;26.92;99732.22;5003837;28;20139;-69
2023/07/06 06:46:53;;;;;;;12.23;5.47;;;;;;;36.74;27.24;99730.41;5019755;28;20040;-69
2023/07/06 06:49:19;;;;;;;20.02;6.70;;;;;;;36.62;27.83;99732.19;5019208;28;20098;-69
2023/07/06 06:51:46;;;;;;;14.30;6.20;;;;;;;36.95;27.37;99731.38;5019627;28;20044;-71
2023/07/06 06:54:13;;;;;;;12.55;5.68;;;;;;;36.92;27.33;99732.03;5019571;28;20515;-69
2023/07/06 06:56:40;;;;;;;14.15;5.93;;;;;;;37.14;26.27;99744.84;5003470;28;20056;-69
2023/07/06 06:59:11;;;;;;;10.48;5.80;;;;;;;37.05;26.57;99738.50;5019442;28;20048;-69
2023/07/06 07:01:40;;;;;;;14.25;5.80;;;;;;;37.49;25.93;99749.16;5051620;28;20067;-69
2023/07/06 07:04:10;;;;;;;11.85;5.40;;;;;;;37.54;25.49;99748.97;5035844;28;20112;-69
2023/07/06 07:06:39;;;;;;;11.68;5.20;;;;;;;38.00;25.04;99757.25;5019253;28;20048;-69
2023/07/06 07:09:13;;;;;;;8.60;5.00;;;;;;;37.52;24.96;99764.31;5032385;28;20041;-69
2023/07/06 07:11:39;;;;;;;15.38;5.60;;;;;;;36.82;25.64;99768.38;5002917;28;20041;-69
2023/07/06 07:14:07;;;;;;;9.50;5.38;;;;;;;37.07;25.78;99759.19;5019029;28;20059;-69
2023/07/06 07:16:34;;;;;;;11.38;5.68;;;;;;;37.49;25.11;99759.44;5038934;28;20044;-70
2023/07/06 07:19:04;;;;;;;10.55;5.38;;;;;;;37.86;24.63;99762.22;5039032;28;20064;-70
2023/07/06 07:21:31;;;;;;;13.05;5.97;;;;;;;38.81;23.61;99770.72;5055227;28;20067;-69
2023/07/06 07:23:58;;;;;;;10.65;5.90;;;;;;;38.69;23.21;99763.13;5022281;28;20060;-70
2023/07/06 07:26:27;;;;;;;9.15;5.15;;;;;;;39.20;22.51;99757.09;4989718;28;20044;-69
2023/07/06 07:28:53;;;;;;;8.95;5.50;;;;;;;39.43;22.42;99765.84;5055432;28;20044;-69
2023/07/06 07:31:22;;;;;;;12.32;5.35;;;;;;;40.07;21.64;99764.03;5022016;28;20103;-70
2023/07/06 07:33:49;;;;;;;11.82;4.97;;;;;;;40.24;21.55;99761.00;5022251;28;20037;-70
2023/07/06 07:36:19;;;;;;;11.95;5.20;;;;;;;39.84;21.19;99779.59;5006412;28;20048;-70
2023/07/06 07:38:46;;;;;;;12.43;5.75;;;;;;;39.31;21.33;99774.13;4998812;28;20464;-69
2023/07/06 07:41:16;;;;;;;10.50;5.30;;;;;;;39.28;21.95;99763.72;4940755;28;20161;-70
2023/07/06 07:43:47;;;;;;;8.88;5.40;;;;;;;39.57;22.10;99769.94;4957257;28;20192;-70
2023/07/06 07:46:14;;;;;;;18.67;6.57;;;;;;;40.02;22.12;99783.75;4925308;28;20074;-70
2023/07/06 07:48:49;;;;;;;13.82;5.82;;;;;;;41.09;20.79;99779.09;4940623;28;20043;-71
2023/07/06 07:51:19;;;;;;;12.30;5.88;;;;;;;41.22;20.21;99779.84;4924715;28;20059;-70
2023/07/06 07:53:48;;;;;;;10.25;5.72;;;;;;;42.39;19.30;99773.25;4940737;28;20045;-70
2023/07/06 07:56:17;;;;;;;9.63;6.88;;;;;;;44.90;16.86;99777.28;4940644;28;20085;-70
2023/07/06 07:58:48;;;;;;;5.97;4.32;;;;;;;46.32;14.88;99781.84;4940465;28;20368;-70
2023/07/06 08:01:18;;;;;;;12.68;5.07;;;;;;;47.23;13.74;99793.53;4956296;28;20054;-70
2023/07/06 08:03:44;;;;;;;;;;;;;;;47.81;13.32;99787.53;4956413;28;20046;-70
2023/07/06 08:06:14;;;;;;;12.25;4.50;;;;;;;48.63;12.89;99766.50;4957209;28;19921;-71
2023/07/06 08:08:43;;;;;;;11.15;5.22;;;;;;;49.02;12.68;99773.56;4992161;28;20129;-70
2023/07/06 08:11:13;;;;;;;11.50;4.47;;;;;;;49.57;12.12;99772.81;4980477;28;20038;-71
2023/07/06 08:13:39;;;;;;;;;;;;;;;50.90;11.28;99782.78;5001665;28;20476;-71
2023/07/06 08:16:08;;;;;;;15.82;4.90;;;;;;;51.03;11.08;99774.50;5069955;28;19924;-71
2023/07/06 08:18:36;;;;;;;11.45;5.43;;;;;;;50.59;10.95;99772.63;5024618;28;20517;-70
2023/07/06 08:21:03;;;;;;;12.55;4.50;;;;;;;49.86;11.40;99786.31;5025015;28;20046;-71
2023/07/06 08:23:29;;;;;;;7.32;4.10;;;;;;;49.68;11.36;99785.66;5074700;28;20105;-70
2023/07/06 08:25:57;;;;;;;7.05;4.28;;;;;;;50.00;11.69;99788.22;5024622;28;20048;-70
2023/07/06 08:28:31;;;;;;;5.43;4.13;;;;;;;50.34;11.51;99760.81;5041467;28;20514;-70
2023/07/06 08:31:03;;;;;;;14.65;4.72;;;;;;;50.86;10.81;99761.38;5025280;28;20036;-70
2023/07/06 08:33:35;;;;;;;12.70;4.10;;;;;;;50.28;10.40;99754.00;5024987;28;20464;-70
2023/07/06 08:36:04;;;;;;;10.75;4.25;;;;;;;49.13;11.67;99764.25;5041950;28;20657;-70
2023/07/06 08:38:34;;;;;;;6.60;4.30;;;;;;;48.22;12.59;99762.56;5059644;28;20118;-70
2023/07/06 08:41:09;;;;;;;7.25;3.83;;;;;;;47.91;12.71;99763.41;5059070;28;20127;-70
2023/07/06 08:43:38;;;;;;;10.60;4.95;;;;;;;47.16;13.32;99742.84;5058817;28;20043;-71
2023/07/06 08:46:05;;;;;;;15.38;4.70;;;;;;;47.87;12.75;99754.16;5058870;28;20032;-70
2023/07/06 08:48:34;;;;;;;5.18;4.10;;;;;;;47.46;13.50;99757.38;5073984;28;20059;-70
2023/07/06 08:51:27;;;;;;;9.35;4.20;;;;;;;48.02;13.10;99748.13;5024228;28;20044;-70
2023/07/06 08:54:10;;;;;;;12.95;4.88;;;;;;;47.63;13.11;99748.16;5024622;28;20052;-69
2023/07/06 08:56:39;;;;;;;9.48;4.80;;;;;;;47.14;13.28;99750.06;5056805;28;20035;-70
2023/07/06 08:59:13;;;;;;;13.60;4.57;;;;;;;47.75;13.27;99754.59;5073863;28;20031;-70
2023/07/06 09:01:45;;;;;;;8.13;4.32;;;;;;;47.56;13.14;99750.13;5023647;28;20038;-71
2023/07/06 09:04:15;;;;;;;10.27;5.13;;;;;;;47.59;12.94;99727.63;4991448;28;20375;-70
2023/07/06 09:06:47;;;;;;;9.02;4.50;;;;;;;47.22;13.52;99732.03;5056942;28;20040;-70
2023/07/06 09:09:16;;;;;;;8.73;4.68;;;;;;;47.58;13.25;99726.03;5073914;28;20028;-70
2023/07/06 09:11:43;;;;;;;10.07;4.55;;;;;;;49.45;12.54;99720.47;5033560;28;20041;-70
2023/07/06 09:14:16;;;;;;;10.00;4.47;;;;;;;50.40;11.12;99742.16;5001501;28;20144;-70
2023/07/06 09:16:55;;;;;;;9.65;4.85;;;;;;;52.00;10.14;99734.50;5018445;28;20145;-70
2023/07/06 09:19:26;;;;;;;10.27;4.88;;;;;;;54.00;8.75;99727.06;5033718;28;20161;-70
2023/07/06 09:22:03;;;;;;;12.02;5.07;;;;;;;55.77;8.01;99734.59;4987397;28;20118;-70
2023/07/06 09:24:34;;;;;;;8.57;4.85;;;;;;;55.45;7.80;99738.53;5032279;28;20033;-70
2023/07/06 09:27:11;;;;;;;5.75;4.50;;;;;;;54.61;8.52;99732.63;5002885;28;20494;-71
2023/07/06 09:29:39;;;;;;;11.70;4.75;;;;;;;54.02;8.87;99713.22;5020689;28;20147;-72
2023/07/06 09:32:17;;;;;;;6.28;4.22;;;;;;;53.62;9.21;99736.63;5020677;28;20507;-70
2023/07/06 09:34:47;;;;;;;5.90;4.10;;;;;;;52.73;9.63;99720.84;5033503;28;20040;-70
2023/07/06 09:37:15;;;;;;;7.88;4.10;;;;;;;52.49;9.92;99710.81;4965733;28;20179;-71
2023/07/06 09:40:06;;;;;;;6.63;4.00;;;;;;;52.79;9.60;99702.09;4997465;28;20080;-71
2023/07/06 09:42:33;;;;;;;5.57;4.13;;;;;;;54.04;8.98;99709.91;4997030;28;20057;-71
2023/07/06 09:45:05;;;;;;;10.27;4.55;;;;;;;55.76;8.00;99710.97;5013525;28;20049;-71
2023/07/06 09:47:36;;;;;;;10.23;4.38;;;;;;;54.79;8.43;99715.81;4957982;28;20070;-71
2023/07/06 09:50:21;;;;;;;11.27;4.32;;;;;;;55.05;8.49;99728.84;4960973;28;20381;-71
2023/07/06 09:52:49;;;;;;;8.13;4.55;;;;;;;55.29;8.12;99717.88;4993545;28;20065;-70
2023/07/06 09:55:29;;;;;;;6.47;4.43;;;;;;;54.93;7.95;99709.72;4990351;28;20038;-70
2023/07/06 09:58:02;;;;;;;12.18;4.82;;;;;;;52.77;8.97;99695.22;4957605;28;20133;-71
2023/07/06 10:00:44;;;;;;;10.10;4.80;;;;;;;51.71;9.58;99703.06;4941992;28;20046;-70
2023/07/06 10:03:31;;;;;;;7.05;4.95;;;;;;;50.41;11.10;99698.50;4988774;28;20093;-71
2023/07/06 10:06:11;;;;;;;7.45;4.90;;;;;;;51.46;10.37;99684.84;4990383;28;20041;-71
2023/07/06 10:08:44;;;;;;;10.75;4.75;;;;;;;53.21;8.84;99692.56;5029858;28;20452;-70
2023/07/06 10:11:20;;;;;;;7.97;4.70;;;;;;;54.38;8.37;99701.59;5016420;28;20127;-72
2023/07/06 10:14:25;;;;;;;10.85;4.85;;;;;;;53.35;8.29;99695.06;5033439;28;20049;-70
2023/07/06 10:17:01;;;;;;;9.90;4.72;;;;;;;52.01;9.38;99682.25;5016403;28;20441;-71
2023/07/06 10:19:57;;;;;;;10.43;5.50;;;;;;;50.67;10.17;99683.66;5016063;28;20072;-71
2023/07/06 10:22:53;;;;;;;9.48;5.18;;;;;;;48.50;11.99;99675.09;5032504;28;20045;-70
2023/07/06 10:25:34;;;;;;;10.07;5.07;;;;;;;48.08;12.46;99672.44;5016161;28;20036;-70
2023/07/06 10:28:12;;;;;;;8.57;5.10;;;;;;;47.81;12.81;99672.06;5057870;28;20055;-70
2023/07/06 10:30:45;;;;;;;9.02;5.25;;;;;;;47.97;12.81;99668.84;5019919;28;20040;-70
2023/07/06 10:33:28;;;;;;;8.32;5.47;;;;;;;49.41;12.17;99680.16;5052663;28;20210;-70
2023/07/06 10:35:58;;;;;;;12.75;6.30;;;;;;;50.65;11.11;99679.63;5022380;28;20202;-71
2023/07/06 10:38:27;;;;;;;10.93;5.60;;;;;;;52.02;10.00;99681.03;5023145;28;20051;-71
2023/07/06 10:41:22;;;;;;;9.50;5.45;;;;;;;52.44;9.72;99688.66;5007269;28;20159;-71
2023/07/06 10:43:51;;;;;;;16.42;6.03;;;;;;;51.54;10.13;99686.34;5055248;28;20036;-71
2023/07/06 10:46:36;;;;;;;10.77;5.80;;;;;;;49.97;10.72;99688.09;5022842;28;20071;-70
2023/07/06 10:49:23;;;;;;;9.88;5.25;;;;;;;48.13;12.50;99672.03;5056925;28;20053;-71
2023/07/06 10:51:56;;;;;;;12.13;6.07;;;;;;;46.83;13.96;99660.75;5022726;28;20377;-70
2023/07/06 10:54:24;;;;;;;10.13;5.68;;;;;;;46.58;13.85;99662.75;5056041;28;20471;-70
2023/07/06 10:57:10;;;;;;;9.38;6.00;;;;;;;46.34;13.92;99664.22;5022810;28;20045;-70
2023/07/06 10:59:42;;;;;;;12.85;6.15;;;;;;;45.88;14.79;99649.97;5023548;28;20062;-70
2023/07/06 11:02:27;;;;;;;7.50;5.45;;;;;;;46.83;14.30;99655.16;5065874;28;20147;-70
2023/07/06 11:05:15;;;;;;;14.00;6.38;;;;;;;48.03;12.79;99656.75;5060596;28;20056;-70
2023/07/06 11:07:51;;;;;;;11.10;5.80;;;;;;;47.76;13.35;99666.06;5092989;28;20031;-70
2023/07/06 11:10:42;;;;;;;12.25;6.00;;;;;;;47.10;13.97;99659.25;5060035;28;20096;-70
2023/07/06 11:13:32;;;;;;;6.82;5.57;;;;;;;46.65;14.00;99662.75;5060288;28;20047;-70
2023/07/06 11:16:02;;;;;;;9.52;5.82;;;;;;;45.90;14.39;99646.75;5053173;28;20040;-70
2023/07/06 11:18:40;;;;;;;11.57;5.80;;;;;;;46.35;14.42;99651.78;5060722;28;20036;-70
2023/07/06 11:21:31;;;;;;;14.38;6.13;;;;;;;45.60;14.81;99637.72;5043674;28;20551;-70
2023/07/06 11:24:06;;;;;;;8.70;5.95;;;;;;;44.99;15.31;99646.00;5060131;28;20040;-70
2023/07/06 11:26:47;;;;;;;13.93;6.60;;;;;;;44.71;15.90;99632.50;5077184;28;20125;-71
2023/07/06 11:29:26;;;;;;;12.27;6.10;;;;;;;44.85;15.52;99637.44;5076738;28;20048;-70
2023/07/06 11:32:51;;;;;;;14.98;6.60;;;;;;;45.10;15.70;99630.09;5060260;28;20039;-70
2023/07/06 11:35:55;;;;;;;14.32;5.78;;;;;;;45.30;15.69;99626.66;5038236;28;20491;-70
2023/07/06 11:38:47;;;;;;;9.63;5.63;;;;;;;45.65;15.25;99626.94;5054968;28;20158;-70
2023/07/06 11:41:27;;;;;;;14.20;6.65;;;;;;;45.10;15.50;99636.53;5055235;28;20043;-70
2023/07/06 11:44:24;;;;;;;12.32;6.60;;;;;;;43.62;16.51;99617.06;5054980;28;20067;-71
2023/07/06 11:47:16;;;;;;;12.15;6.00;;;;;;;43.96;16.71;99615.16;5037693;28;20041;-70
2023/07/06 11:53:17;;;;;;;9.60;6.05;;;;;;;43.83;16.54;99602.53;5054091;28;20466;-70